Time;durP1;ratioP1;P1;durP2;ratioP2;P2;SDS_P1;SDS_P2;PMS_P1;PMS_P2;Temp;Humidity;BMP_temperature;BMP_pressure;BME280_temperature;BME280_humidity;BME280_pressure;Samples;Min_cycle;Max_cycle;Signal;HPM_P1;HPM_P2
2022/08/12 00:43:16;;;;;;;2.38;2.30;;;19.50;99.30;;;;;;6261144;28;20271;-69
2022/08/12 00:46:35;;;;;;;2.67;2.58;;;19.40;99.90;;;;;;6306432;28;20298;-69
2022/08/12 00:49:41;;;;;;;2.80;1.90;;;19.30;99.90;;;;;;6314120;28;20311;-69
2022/08/12 00:52:53;;;;;;;2.80;2.70;;;19.20;99.90;;;;;;6313795;28;20266;-70
2022/08/12 00:56:05;;;;;;;2.92;2.65;;;19.20;99.90;;;;;;6314636;28;20271;-70
2022/08/12 00:59:11;;;;;;;2.70;2.50;;;19.20;99.90;;;;;;6314088;28;20302;-70
2022/08/12 01:02:23;;;;;;;4.50;2.33;;;19.10;99.90;;;;;;6314614;28;20275;-70
2022/08/12 01:12:31;;;;;;;3.15;2.95;;;18.90;99.90;;;;;;6314543;28;20271;-69
2022/08/12 01:15:36;;;;;;;2.60;2.50;;;18.90;99.90;;;;;;6313916;28;20294;-69
2022/08/12 01:18:42;;;;;;;2.78;2.58;;;18.90;99.90;;;;;;6313438;28;20282;-69
2022/08/12 01:22:25;;;;;;;2.95;2.72;;;18.90;99.90;;;;;;6314117;28;20452;-69
2022/08/12 01:25:35;;;;;;;2.75;2.55;;;18.80;99.90;;;;;;6312147;28;20310;-68
2022/08/12 01:29:02;;;;;;;4.65;2.55;;;18.90;99.90;;;;;;6313285;28;20295;-69
2022/08/12 01:32:10;;;;;;;2.67;2.55;;;19.00;99.90;;;;;;6313619;28;20476;-69
2022/08/12 01:35:17;;;;;;;2.55;2.40;;;18.90;99.90;;;;;;6313285;28;20290;-68
2022/08/12 01:38:23;;;;;;;2.47;2.38;;;18.80;99.90;;;;;;6312609;28;20294;-69
2022/08/12 01:41:39;;;;;;;3.03;2.78;;;18.70;99.90;;;;;;6313608;28;20274;-69
2022/08/12 01:44:45;;;;;;;4.05;2.75;;;18.70;99.90;;;;;;6295040;28;20462;-69
2022/08/12 01:48:15;;;;;;;2.20;2.10;;;18.70;99.90;;;;;;6313204;28;20266;-69
2022/08/12 01:51:39;;;;;;;3.10;2.55;;;18.70;99.90;;;;;;6311824;28;20294;-69
2022/08/12 01:55:06;;;;;;;8.63;2.47;;;18.60;99.90;;;;;;6294940;28;20295;-69
2022/08/12 01:58:27;;;;;;;2.97;2.80;;;18.70;99.90;;;;;;6312719;28;20286;-69
2022/08/12 02:01:38;;;;;;;2.35;2.25;;;18.60;99.90;;;;;;6312906;28;20314;-69
2022/08/12 02:12:19;;;;;;;4.63;2.50;;;18.50;99.90;;;;;;6288434;28;20288;-69
2022/08/12 02:15:45;;;;;;;2.40;2.40;;;18.50;99.90;;;;;;6287576;28;20295;-69
2022/08/12 02:18:58;;;;;;;2.83;2.63;;;18.50;99.90;;;;;;6287488;28;20300;-70
2022/08/12 02:22:19;;;;;;;2.55;2.35;;;18.40;99.90;;;;;;6287544;28;20275;-70
2022/08/12 02:25:29;;;;;;;2.72;2.45;;;18.50;99.90;;;;;;6287025;28;20295;-69
2022/08/12 02:28:36;;;;;;;5.63;2.70;;;18.50;99.90;;;;;;6287077;28;20287;-68
2022/08/12 02:31:45;;;;;;;2.58;2.45;;;18.50;99.90;;;;;;6287321;28;20311;-68
2022/08/12 02:34:50;;;;;;;2.25;2.15;;;18.50;99.90;;;;;;6286764;28;20325;-69
2022/08/12 02:37:58;;;;;;;2.97;2.65;;;18.50;99.90;;;;;;6287488;28;20275;-69
2022/08/12 02:41:05;;;;;;;2.85;2.50;;;18.40;99.90;;;;;;6287422;28;20279;-70
2022/08/12 02:44:16;;;;;;;2.53;2.42;;;18.40;99.90;;;;;;6297557;28;20298;-70
2022/08/12 02:47:24;;;;;;;2.90;2.50;;;18.30;99.90;;;;;;6312241;28;20557;-70
2022/08/12 02:50:53;;;;;;;2.60;2.40;;;18.40;99.90;;;;;;6311530;28;20316;-70
2022/08/12 02:54:00;;;;;;;2.88;2.80;;;18.30;99.90;;;;;;6311369;28;20294;-70
2022/08/12 02:57:13;;;;;;;3.80;2.38;;;18.30;99.90;;;;;;6311789;28;20302;-69
2022/08/12 03:00:18;;;;;;;2.78;2.67;;;18.30;99.90;;;;;;6311112;28;20294;-69
2022/08/12 03:03:29;;;;;;;2.55;2.45;;;18.30;99.90;;;;;;6306210;28;20465;-69
2022/08/12 03:06:42;;;;;;;2.85;2.65;;;18.30;99.90;;;;;;6311744;28;20327;-68
2022/08/12 03:09:58;;;;;;;2.78;2.67;;;18.20;99.90;;;;;;6310620;28;20613;-70
2022/08/12 03:13:11;;;;;;;2.80;2.60;;;18.20;99.90;;;;;;6311012;28;20295;-69
2022/08/12 03:16:18;;;;;;;2.95;2.85;;;18.20;99.90;;;;;;6311531;28;20270;-68
2022/08/12 03:19:25;;;;;;;2.55;2.55;;;18.10;99.90;;;;;;6290677;28;20294;-68
2022/08/12 03:22:31;;;;;;;3.08;2.85;;;18.10;99.90;;;;;;6285821;28;20294;-69
2022/08/12 03:25:39;;;;;;;3.75;2.80;;;18.10;99.90;;;;;;6286364;28;20271;-69
2022/08/12 03:28:52;;;;;;;5.35;2.60;;;18.10;99.90;;;;;;6285646;28;20465;-69
2022/08/12 03:31:59;;;;;;;2.75;2.60;;;18.10;99.90;;;;;;6286330;28;20295;-68
2022/08/12 03:35:08;;;;;;;3.72;2.50;;;18.10;99.90;;;;;;6285491;28;20450;-69
2022/08/12 03:38:37;;;;;;;5.43;2.88;;;18.10;99.90;;;;;;6260556;28;20295;-69
2022/08/12 03:41:52;;;;;;;4.28;2.80;;;18.10;99.90;;;;;;6261428;28;20284;-69
2022/08/12 04:02:14;;;;;;;3.20;3.00;;;18.00;99.90;;;;;;6235922;28;20341;-68
2022/08/12 04:05:20;;;;;;;7.30;2.60;;;18.10;99.90;;;;;;6236368;28;20437;-69
2022/08/12 04:08:28;;;;;;;2.90;2.80;;;18.10;99.90;;;;;;6236090;28;20296;-69
2022/08/12 04:15:03;;;;;;;3.92;2.70;;;18.10;99.90;;;;;;6260057;28;20456;-69
2022/08/12 04:18:12;;;;;;;2.55;2.45;;;18.10;99.90;;;;;;6260300;28;20372;-69
2022/08/12 04:21:17;;;;;;;9.55;2.65;;;18.10;99.90;;;;;;6260880;28;20275;-70
2022/08/12 04:24:26;;;;;;;3.33;2.80;;;18.20;99.90;;;;;;6260187;28;20635;-70
2022/08/12 04:27:32;;;;;;;2.80;2.70;;;18.20;99.90;;;;;;6260334;28;20292;-70
2022/08/12 04:30:38;;;;;;;3.53;2.40;;;18.20;99.90;;;;;;6260835;28;20276;-70
2022/08/12 04:33:44;;;;;;;2.30;2.15;;;18.20;99.90;;;;;;6259805;28;20580;-69
2022/08/12 04:36:50;;;;;;;3.25;2.60;;;18.30;99.90;;;;;;6260403;28;20276;-68
2022/08/12 04:39:59;;;;;;;2.55;2.35;;;18.20;99.90;;;;;;6260051;28;20292;-69
2022/08/12 04:43:05;;;;;;;3.88;2.53;;;18.30;99.90;;;;;;6242743;28;20295;-70
2022/08/12 04:46:31;;;;;;;4.18;2.33;;;18.30;99.90;;;;;;6279765;28;20595;-70
2022/08/12 04:49:40;;;;;;;4.43;2.50;;;18.30;99.90;;;;;;6284725;28;20300;-70
2022/08/12 04:52:46;;;;;;;4.35;2.63;;;18.30;99.90;;;;;;6284336;28;20482;-70
2022/08/12 04:55:52;;;;;;;11.27;2.92;;;18.40;99.90;;;;;;6284941;28;20271;-70
2022/08/12 04:58:59;;;;;;;2.85;2.40;;;18.40;99.90;;;;;;6286151;28;20585;-69
2022/08/12 05:02:04;;;;;;;2.60;2.40;;;18.50;99.90;;;;;;6288671;28;20603;-68
2022/08/12 05:05:23;;;;;;;3.25;2.58;;;18.50;99.90;;;;;;6271587;28;20276;-69
2022/08/12 05:08:29;;;;;;;2.40;2.30;;;18.60;99.90;;;;;;6289068;28;20295;-70
2022/08/12 05:11:36;;;;;;;2.10;2.10;;;18.60;99.90;;;;;;6289012;28;20263;-69
2022/08/12 05:14:58;;;;;;;2.30;2.20;;;18.70;99.90;;;;;;6288870;28;20303;-68
2022/08/12 05:18:04;;;;;;;3.17;2.42;;;18.70;99.90;;;;;;6288489;28;20310;-69
2022/08/12 05:21:24;;;;;;;3.20;2.40;;;18.80;99.90;;;;;;6288674;28;20298;-69
2022/08/12 05:24:29;;;;;;;2.28;2.17;;;18.80;99.90;;;;;;6288475;28;20304;-68
2022/08/12 05:27:36;;;;;;;2.92;1.92;;;18.80;99.90;;;;;;6288494;28;20566;-69
2022/08/12 05:30:42;;;;;;;2.88;2.20;;;18.90;99.90;;;;;;6288294;28;20271;-69
2022/08/12 05:33:47;;;;;;;2.72;2.50;;;18.90;99.90;;;;;;6288203;28;20303;-69
2022/08/12 05:36:52;;;;;;;2.10;2.00;;;18.90;99.90;;;;;;6288621;28;20562;-69
2022/08/12 05:39:58;;;;;;;2.08;2.05;;;18.90;99.90;;;;;;6287956;28;20586;-69
2022/08/12 05:43:05;;;;;;;7.25;2.22;;;18.90;99.90;;;;;;6288084;28;20314;-69
2022/08/12 05:46:11;;;;;;;2.72;2.53;;;19.00;99.90;;;;;;6270215;28;20298;-69
2022/08/12 05:49:17;;;;;;;2.20;2.10;;;19.00;99.90;;;;;;6287692;28;20295;-69
2022/08/12 05:52:22;;;;;;;2.20;2.08;;;19.10;99.90;;;;;;6287656;28;20298;-69
2022/08/12 05:55:27;;;;;;;2.42;2.28;;;19.10;99.90;;;;;;6288480;28;20427;-69
2022/08/12 05:58:36;;;;;;;2.65;2.38;;;19.10;99.90;;;;;;6287854;28;20381;-70
2022/08/12 06:01:42;;;;;;;2.45;2.35;;;19.20;99.90;;;;;;6287765;28;20267;-69
2022/08/12 06:05:09;;;;;;;2.53;2.03;;;19.30;99.90;;;;;;6287028;28;20279;-70
2022/08/12 06:08:16;;;;;;;2.85;2.20;;;19.30;99.90;;;;;;6287790;28;20294;-69
2022/08/12 06:11:23;;;;;;;2.10;2.00;;;19.30;99.90;;;;;;6287259;28;20591;-70
2022/08/12 06:14:35;;;;;;;1.90;1.90;;;19.30;99.90;;;;;;6287246;28;20291;-69
2022/08/12 06:17:41;;;;;;;2.75;2.17;;;19.50;99.90;;;;;;6287212;28;20291;-70
2022/08/12 06:20:48;;;;;;;2.90;2.40;;;19.50;99.90;;;;;;6288101;28;20271;-70
2022/08/12 06:23:57;;;;;;;2.38;2.28;;;19.70;99.90;;;;;;6286973;28;20298;-69
2022/08/12 06:27:02;;;;;;;3.35;2.17;;;19.80;99.90;;;;;;6287185;28;20558;-70
2022/08/12 06:30:10;;;;;;;2.15;2.05;;;20.00;99.90;;;;;;6287670;28;20275;-70
2022/08/12 06:33:28;;;;;;;2.22;2.13;;;20.20;99.90;;;;;;6286520;28;20295;-68
2022/08/12 06:36:54;;;;;;;2.58;2.30;;;20.30;99.90;;;;;;6286991;28;20270;-70
2022/08/12 06:39:59;;;;;;;2.00;2.00;;;20.50;99.90;;;;;;6286380;28;20294;-70
2022/08/12 06:43:07;;;;;;;2.42;2.33;;;20.60;99.90;;;;;;6286776;28;20295;-69
2022/08/12 06:46:14;;;;;;;2.92;2.13;;;20.70;99.90;;;;;;6286667;28;20295;-69
2022/08/12 06:49:19;;;;;;;2.25;2.13;;;20.80;99.90;;;;;;6286276;28;20469;-69
2022/08/12 06:52:25;;;;;;;2.28;2.22;;;20.90;99.70;;;;;;6286030;28;20290;-69
2022/08/12 06:55:30;;;;;;;5.13;2.30;;;21.10;99.90;;;;;;6286189;28;20463;-68
2022/08/12 06:58:37;;;;;;;2.95;2.30;;;21.20;99.00;;;;;;6286158;28;20294;-69
2022/08/12 07:01:44;;;;;;;4.15;2.33;;;21.30;99.60;;;;;;6286875;28;20271;-69
2022/08/12 07:04:56;;;;;;;2.92;2.10;;;21.30;99.60;;;;;;6286348;28;20315;-70
2022/08/12 07:08:07;;;;;;;2.67;2.47;;;21.40;99.30;;;;;;6286058;28;20305;-70
2022/08/12 07:11:14;;;;;;;2.33;2.10;;;21.50;99.00;;;;;;6285938;28;20263;-68
2022/08/12 07:14:20;;;;;;;2.25;2.15;;;21.60;98.70;;;;;;6285030;28;20295;-69
2022/08/12 07:17:34;;;;;;;8.48;2.25;;;21.70;98.70;;;;;;6285825;28;20291;-69
2022/08/12 07:20:42;;;;;;;2.00;1.90;;;21.70;98.30;;;;;;6286444;28;20276;-70
2022/08/12 07:23:57;;;;;;;2.67;2.30;;;21.80;98.50;;;;;;6284533;28;20307;-69
2022/08/12 07:27:02;;;;;;;2.03;2.03;;;21.90;99.00;;;;;;6284882;28;20275;-68
2022/08/12 07:30:09;;;;;;;4.80;2.47;;;22.00;98.80;;;;;;6286178;28;20476;-69
2022/08/12 07:33:18;;;;;;;3.65;2.22;;;22.10;98.50;;;;;;6285702;28;20295;-70
2022/08/12 07:36:24;;;;;;;2.60;2.40;;;22.10;98.30;;;;;;6285938;28;20271;-69
2022/08/12 07:39:29;;;;;;;2.30;2.10;;;22.20;98.40;;;;;;6285628;28;20295;-69
2022/08/12 07:42:35;;;;;;;2.50;2.20;;;22.30;98.10;;;;;;6285414;28;20291;-69
2022/08/12 07:45:41;;;;;;;4.60;2.30;;;22.30;97.80;;;;;;6285630;28;20290;-69
2022/08/12 07:48:52;;;;;;;2.45;2.38;;;22.40;97.70;;;;;;6285386;28;20295;-69
2022/08/12 07:51:59;;;;;;;2.55;2.50;;;22.40;97.30;;;;;;6286055;28;20270;-70
2022/08/12 07:55:05;;;;;;;2.72;2.30;;;22.40;98.00;;;;;;6284846;28;20451;-69
2022/08/12 07:58:14;;;;;;;3.72;2.50;;;22.50;97.60;;;;;;6285016;28;20303;-70
2022/08/12 08:01:21;;;;;;;4.13;2.30;;;22.50;97.40;;;;;;6285330;28;20295;-69
2022/08/12 08:07:52;;;;;;;7.47;2.40;;;22.50;97.40;;;;;;6285029;28;20291;-69
2022/08/12 08:14:19;;;;;;;2.25;2.15;;;22.50;97.20;;;;;;6284375;28;20578;-69
2022/08/12 08:17:25;;;;;;;7.13;2.60;;;22.50;96.80;;;;;;6284623;28;20294;-69
2022/08/12 08:20:36;;;;;;;3.60;2.20;;;22.50;97.10;;;;;;6285108;28;20271;-68
2022/08/12 08:27:09;;;;;;;8.70;6.22;;;22.50;96.80;;;;;;6285007;28;20426;-70
2022/08/12 08:30:16;;;;;;;5.30;4.80;;;22.50;96.70;;;;;;6285554;28;20271;-70
2022/08/12 08:33:22;;;;;;;3.75;3.50;;;22.60;97.00;;;;;;6285970;28;20299;-69
2022/08/12 08:36:49;;;;;;;3.00;2.90;;;22.60;97.40;;;;;;6289725;28;20303;-68
2022/08/12 08:42:35;;;;;;;2.92;2.75;;;22.60;97.30;;;;;;6289261;28;20299;-69
2022/08/12 08:43:19;;;;;;;3.60;3.28;;;22.50;97.70;;;;;;6289690;28;20295;-69
2022/08/12 08:46:25;;;;;;;2.85;2.60;;;22.60;96.90;;;;;;6308996;28;20302;-69
2022/08/12 08:49:30;;;;;;;4.50;4.30;;;22.60;97.20;;;;;;6314174;28;20298;-69
2022/08/12 08:52:40;;;;;;;2.90;2.70;;;22.60;96.90;;;;;;6313840;28;20290;-69
2022/08/12 08:55:47;;;;;;;4.22;2.40;;;22.60;96.50;;;;;;6314337;28;20290;-69
2022/08/12 08:59:10;;;;;;;2.30;2.30;;;22.60;96.60;;;;;;6313818;28;20294;-69
2022/08/12 09:02:15;;;;;;;2.58;2.40;;;22.70;96.40;;;;;;6313835;28;20270;-70
2022/08/12 09:05:20;;;;;;;2.88;2.67;;;22.70;96.60;;;;;;6314295;28;20459;-69
2022/08/12 09:08:31;;;;;;;3.25;2.70;;;22.70;96.80;;;;;;6313830;28;20455;-69
2022/08/12 09:15:16;;;;;;;3.08;2.50;;;22.80;96.70;;;;;;6312695;28;20314;-69
2022/08/12 09:18:24;;;;;;;2.25;2.10;;;22.90;96.40;;;;;;6313207;28;20477;-69
2022/08/12 09:21:37;;;;;;;2.13;2.13;;;22.90;96.80;;;;;;6313801;28;20447;-69
2022/08/12 09:25:00;;;;;;;3.10;2.80;;;22.90;96.00;;;;;;6313515;28;20302;-69
2022/08/12 09:28:12;;;;;;;2.92;2.42;;;22.90;96.40;;;;;;6313070;28;20298;-70
2022/08/12 09:31:18;;;;;;;2.53;2.33;;;22.90;96.30;;;;;;6313682;28;20270;-70
2022/08/12 09:34:44;;;;;;;2.38;2.30;;;23.00;96.60;;;;;;6313202;28;20298;-69
2022/08/12 09:37:55;;;;;;;2.35;2.20;;;22.90;96.80;;;;;;6313229;28;20295;-69
2022/08/12 09:41:04;;;;;;;3.00;2.58;;;23.00;95.90;;;;;;6313800;28;20286;-70
2022/08/12 09:48:18;;;;;;;2.58;2.22;;;23.20;95.70;;;;;;6312810;28;20303;-70
2022/08/12 09:51:27;;;;;;;3.00;2.80;;;23.20;95.10;;;;;;6313018;28;20274;-70
2022/08/12 09:54:42;;;;;;;2.50;2.42;;;23.30;95.50;;;;;;6313123;28;20299;-70
2022/08/12 09:57:53;;;;;;;2.53;2.35;;;23.30;95.00;;;;;;6312335;28;20299;-70
2022/08/12 10:01:19;;;;;;;5.57;2.17;;;23.30;95.00;;;;;;6313081;28;20370;-70
2022/08/12 10:04:28;;;;;;;5.35;2.38;;;23.40;95.40;;;;;;6312488;28;20574;-69
2022/08/12 10:07:34;;;;;;;2.20;2.20;;;23.50;95.20;;;;;;6311689;28;20286;-69
2022/08/12 10:14:10;;;;;;;3.42;2.33;;;23.50;94.70;;;;;;6312133;28;20481;-69
2022/08/12 10:17:22;;;;;;;2.83;2.22;;;23.60;95.00;;;;;;6312147;28;20485;-70
2022/08/12 10:20:28;;;;;;;12.35;3.20;;;23.60;94.80;;;;;;6312222;28;20270;-70
2022/08/12 10:23:39;;;;;;;2.42;2.42;;;23.70;94.80;;;;;;6312012;28;20294;-70
2022/08/12 10:30:20;;;;;;;3.03;2.47;;;23.80;95.10;;;;;;6311028;28;20273;-70
2022/08/12 10:33:45;;;;;;;2.90;2.70;;;23.80;94.70;;;;;;6311735;28;20299;-70
2022/08/12 10:37:11;;;;;;;2.35;2.17;;;23.90;94.50;;;;;;6311550;28;20298;-70
2022/08/12 10:43:39;;;;;;;3.08;2.40;;;24.00;94.20;;;;;;6311650;28;20274;-71
2022/08/12 10:44:04;;;;;;;2.38;2.30;;;24.10;93.60;;;;;;6311514;28;20294;-69
2022/08/12 10:47:11;;;;;;;4.65;2.47;;;24.20;93.80;;;;;;6311313;28;20270;-70
2022/08/12 10:50:36;;;;;;;6.00;2.22;;;24.30;93.50;;;;;;6312010;28;20461;-70
2022/08/12 10:54:01;;;;;;;4.80;2.65;;;24.30;93.40;;;;;;6311433;28;20590;-69
2022/08/12 10:57:07;;;;;;;2.83;2.58;;;24.50;93.20;;;;;;6310364;28;20326;-69
2022/08/12 11:00:22;;;;;;;2.55;2.45;;;24.50;92.90;;;;;;6311774;28;20649;-69
2022/08/12 11:03:41;;;;;;;2.95;2.80;;;24.60;92.70;;;;;;6311025;28;20294;-69
2022/08/12 11:07:07;;;;;;;4.97;2.25;;;24.70;92.70;;;;;;6310432;28;20270;-69
2022/08/12 11:10:32;;;;;;;2.97;2.78;;;24.70;92.90;;;;;;6311478;28;20270;-69
2022/08/12 11:13:38;;;;;;;2.20;2.20;;;24.70;92.30;;;;;;6310826;28;20477;-69
2022/08/12 11:16:55;;;;;;;2.35;2.20;;;24.80;92.00;;;;;;6310891;28;20582;-70
2022/08/12 11:20:22;;;;;;;2.20;2.20;;;24.90;92.00;;;;;;6309884;28;20278;-69
2022/08/12 11:23:35;;;;;;;3.85;2.28;;;24.90;91.90;;;;;;6310681;28;20486;-70
2022/08/12 11:26:41;;;;;;;2.38;2.20;;;24.90;92.00;;;;;;6311312;28;20279;-70
2022/08/12 11:29:47;;;;;;;2.45;2.38;;;25.00;91.90;;;;;;6310796;28;20573;-69
2022/08/12 11:33:11;;;;;;;2.40;2.30;;;25.10;92.10;;;;;;6310326;28;20290;-69
2022/08/12 11:36:38;;;;;;;5.65;2.60;;;25.10;92.60;;;;;;6310765;28;20274;-70
2022/08/12 11:39:45;;;;;;;2.78;2.60;;;25.10;92.10;;;;;;6310505;28;20299;-69
2022/08/12 11:43:14;;;;;;;4.10;2.70;;;25.30;92.30;;;;;;6310302;28;20293;-70
2022/08/12 11:46:24;;;;;;;8.38;2.67;;;25.30;91.90;;;;;;6310913;28;20294;-70
2022/08/12 11:49:29;;;;;;;2.67;2.60;;;25.30;91.60;;;;;;6310160;28;20290;-69
2022/08/12 11:52:38;;;;;;;4.63;2.92;;;25.40;91.70;;;;;;6309862;28;20289;-70
2022/08/12 11:56:01;;;;;;;2.50;2.40;;;25.40;91.70;;;;;;6310588;28;20459;-70
2022/08/12 11:59:06;;;;;;;2.67;2.50;;;25.50;91.40;;;;;;6309832;28;20298;-69
2022/08/12 12:02:32;;;;;;;2.90;2.30;;;25.50;91.00;;;;;;6310199;28;20290;-70
2022/08/12 12:05:37;;;;;;;2.60;2.40;;;25.60;90.70;;;;;;6310659;28;20275;-70
2022/08/12 12:08:48;;;;;;;2.92;2.83;;;25.70;90.40;;;;;;6313541;28;20294;-70
2022/08/12 12:11:59;;;;;;;2.67;2.47;;;25.70;90.60;;;;;;6318483;28;20449;-69
2022/08/12 12:15:07;;;;;;;2.80;2.60;;;25.80;90.90;;;;;;6317470;28;20421;-69
2022/08/12 12:18:21;;;;;;;2.70;2.50;;;25.80;90.80;;;;;;6317932;28;20479;-69
2022/08/12 12:21:35;;;;;;;2.97;2.42;;;25.90;90.50;;;;;;6318749;28;20266;-69
2022/08/12 12:24:54;;;;;;;2.72;2.58;;;26.00;90.50;;;;;;6318001;28;20298;-69
2022/08/12 12:28:00;;;;;;;2.63;2.50;;;26.00;90.20;;;;;;6317866;28;20302;-69
2022/08/12 12:31:10;;;;;;;2.40;2.40;;;26.10;90.10;;;;;;6318509;28;20419;-70
2022/08/12 12:34:35;;;;;;;2.60;2.60;;;26.20;90.40;;;;;;6317963;28;20383;-69
2022/08/12 12:37:56;;;;;;;2.78;2.35;;;26.10;89.30;;;;;;6317569;28;20318;-69
2022/08/12 12:41:11;;;;;;;2.83;2.75;;;26.20;89.70;;;;;;6317984;28;20450;-70
2022/08/12 12:44:20;;;;;;;2.50;2.50;;;26.20;90.10;;;;;;6317615;28;20294;-69
2022/08/12 12:48:05;;;;;;;2.70;2.58;;;26.30;90.30;;;;;;6317357;28;20294;-69
2022/08/12 12:51:17;;;;;;;3.75;2.40;;;26.40;88.50;;;;;;6313468;28;20274;-69
2022/08/12 12:54:51;;;;;;;5.47;2.67;;;26.40;88.50;;;;;;6317439;28;20294;-69
2022/08/12 12:58:00;;;;;;;2.83;2.72;;;26.40;88.30;;;;;;6317494;28;20298;-69
2022/08/12 13:01:05;;;;;;;3.67;2.90;;;26.50;89.50;;;;;;6318137;28;20270;-70
2022/08/12 13:04:33;;;;;;;2.83;2.75;;;26.60;88.90;;;;;;6317590;28;20310;-69
2022/08/12 13:07:41;;;;;;;3.30;2.72;;;26.60;89.40;;;;;;6317185;28;20294;-69
2022/08/12 13:11:01;;;;;;;6.97;2.88;;;26.60;89.30;;;;;;6317785;28;20267;-69
2022/08/12 13:14:09;;;;;;;2.78;2.67;;;26.60;89.00;;;;;;6317394;28;20473;-69
2022/08/12 13:17:35;;;;;;;3.15;2.60;;;26.70;86.20;;;;;;6317755;28;20295;-69
2022/08/12 13:21:01;;;;;;;2.45;2.45;;;26.80;86.90;;;;;;6296964;28;20274;-69
2022/08/12 13:24:06;;;;;;;2.20;2.20;;;27.50;85.10;;;;;;6313562;28;20470;-69
2022/08/12 13:27:15;;;;;;;5.50;2.70;;;27.60;84.00;;;;;;6312996;28;20270;-69
2022/08/12 13:30:24;;;;;;;2.58;2.47;;;27.30;86.00;;;;;;6313506;28;20274;-69
2022/08/12 13:33:31;;;;;;;2.30;2.25;;;27.20;88.00;;;;;;6313195;28;20471;-69
2022/08/12 13:36:56;;;;;;;3.83;2.50;;;27.20;87.00;;;;;;6313300;28;20290;-69
2022/08/12 13:40:02;;;;;;;3.30;2.30;;;27.10;86.30;;;;;;6312846;28;20294;-69
2022/08/12 13:43:07;;;;;;;4.88;2.55;;;27.10;86.30;;;;;;6313120;28;20581;-69
2022/08/12 13:46:19;;;;;;;2.50;2.28;;;27.10;87.00;;;;;;6312955;28;20302;-69
2022/08/12 13:49:24;;;;;;;2.35;2.10;;;27.10;85.70;;;;;;6312957;28;20298;-70
2022/08/12 13:52:49;;;;;;;2.05;2.05;;;27.10;85.00;;;;;;6312629;28;20310;-70
2022/08/12 13:55:54;;;;;;;2.55;2.35;;;27.10;81.10;;;;;;6313429;28;20275;-69
2022/08/12 13:59:07;;;;;;;2.80;2.35;;;27.10;79.80;;;;;;6294626;28;20290;-70
2022/08/12 14:02:14;;;;;;;2.40;2.30;;;27.10;80.40;;;;;;6312938;28;20267;-69
2022/08/12 14:05:21;;;;;;;2.38;2.30;;;27.10;82.40;;;;;;6313133;28;20267;-69
2022/08/12 14:08:42;;;;;;;3.15;2.15;;;27.10;81.40;;;;;;6312764;28;20298;-68
2022/08/12 14:11:48;;;;;;;3.78;2.28;;;27.10;80.30;;;;;;6313196;28;20262;-70
2022/08/12 14:15:06;;;;;;;2.25;2.20;;;27.20;79.80;;;;;;6312237;28;20279;-69
2022/08/12 14:18:16;;;;;;;2.00;1.90;;;27.10;80.70;;;;;;6311931;28;20302;-70
2022/08/12 14:21:22;;;;;;;4.53;2.53;;;27.10;80.90;;;;;;6312136;28;20310;-70
2022/08/12 14:24:35;;;;;;;2.17;2.17;;;27.10;79.30;;;;;;6312260;28;20302;-70
2022/08/12 14:27:45;;;;;;;6.13;3.40;;;27.10;81.40;;;;;;6312237;28;20295;-69
2022/08/12 14:31:11;;;;;;;2.58;2.47;;;27.10;80.10;;;;;;6311526;28;20274;-69
2022/08/12 14:34:24;;;;;;;2.40;2.22;;;27.10;79.70;;;;;;6311607;28;20302;-69
2022/08/12 14:37:32;;;;;;;2.10;2.05;;;27.10;78.90;;;;;;6311816;28;20295;-70
2022/08/12 14:41:00;;;;;;;2.50;2.40;;;27.00;77.50;;;;;;6312319;28;20290;-70
2022/08/12 14:44:05;;;;;;;2.63;2.30;;;27.10;79.30;;;;;;6311179;28;20294;-69
2022/08/12 14:47:30;;;;;;;2.58;2.38;;;27.10;79.70;;;;;;6311269;28;20298;-70
2022/08/12 14:50:40;;;;;;;3.35;3.03;;;27.10;79.80;;;;;;6311213;28;20562;-70
2022/08/12 14:54:07;;;;;;;4.32;3.55;;;27.10;80.30;;;;;;6311220;28;20294;-70
2022/08/12 14:57:34;;;;;;;3.50;3.33;;;27.10;81.00;;;;;;6310904;28;20298;-70
2022/08/12 15:04:27;;;;;;;2.53;2.33;;;27.10;80.40;;;;;;6310852;28;20295;-71
2022/08/12 15:07:36;;;;;;;4.40;2.30;;;27.10;80.30;;;;;;6292737;28;20456;-70
2022/08/12 15:10:56;;;;;;;3.00;2.10;;;27.10;81.90;;;;;;6310927;28;20267;-69
2022/08/12 15:14:02;;;;;;;5.50;2.60;;;27.00;80.00;;;;;;6310903;28;20449;-70
2022/08/12 15:17:11;;;;;;;3.33;2.50;;;26.70;88.50;;;;;;6310358;28;20275;-69
2022/08/12 15:20:38;;;;;;;3.13;2.90;;;26.30;90.90;;;;;;6310491;28;20290;-70
2022/08/12 15:23:45;;;;;;;2.83;2.78;;;26.10;92.30;;;;;;6292777;28;20297;-70
2022/08/12 15:27:01;;;;;;;3.50;3.25;;;25.90;92.80;;;;;;6310933;28;20270;-70
2022/08/12 15:30:12;;;;;;;4.32;4.03;;;25.70;93.40;;;;;;6310006;28;20282;-70
2022/08/12 15:33:22;;;;;;;7.88;4.78;;;25.50;94.10;;;;;;6310283;28;20298;-69
2022/08/12 15:36:28;;;;;;;4.78;3.53;;;25.40;94.60;;;;;;6310554;28;20270;-69
2022/08/12 15:39:55;;;;;;;3.53;3.33;;;25.30;94.80;;;;;;6310212;28;20290;-70
2022/08/12 15:43:06;;;;;;;8.82;3.50;;;25.10;95.30;;;;;;6309415;28;20290;-69
2022/08/12 15:46:13;;;;;;;4.05;3.92;;;24.90;95.50;;;;;;6310558;28;20299;-69
2022/08/12 15:49:19;;;;;;;3.97;3.88;;;24.70;95.80;;;;;;6309718;28;20648;-69
2022/08/12 15:52:28;;;;;;;4.65;4.35;;;24.60;96.20;;;;;;6310122;28;20318;-70
2022/08/12 15:55:36;;;;;;;5.32;5.03;;;24.50;96.60;;;;;;6310833;28;20449;-68
2022/08/12 15:58:50;;;;;;;5.35;5.13;;;24.30;96.90;;;;;;6325394;28;20294;-71
2022/08/12 16:01:57;;;;;;;4.97;4.57;;;24.10;97.30;;;;;;6310250;28;20294;-69
2022/08/12 16:05:02;;;;;;;5.63;4.57;;;24.10;97.40;;;;;;6309533;28;20278;-69
2022/08/12 16:08:35;;;;;;;5.13;4.70;;;23.90;97.70;;;;;;6309686;28;20302;-69
2022/08/12 16:11:42;;;;;;;5.38;4.55;;;23.80;98.00;;;;;;6310248;28;20554;-70
2022/08/12 16:14:48;;;;;;;6.60;4.40;;;23.60;98.20;;;;;;6309634;28;20294;-70
2022/08/12 16:17:56;;;;;;;5.32;4.80;;;23.60;98.50;;;;;;6309840;28;20285;-70
2022/08/12 16:21:21;;;;;;;6.50;5.88;;;23.60;98.30;;;;;;6310002;28;20468;-67
2022/08/12 16:24:46;;;;;;;6.78;6.18;;;23.60;98.50;;;;;;6309463;28;20369;-67
2022/08/12 16:28:01;;;;;;;5.95;5.50;;;23.60;98.50;;;;;;6309644;28;20295;-69
2022/08/12 16:31:08;;;;;;;5.10;4.90;;;23.60;98.60;;;;;;6310345;28;20567;-67
2022/08/12 16:34:15;;;;;;;5.45;5.10;;;23.60;98.60;;;;;;6309597;28;20589;-69
2022/08/12 16:37:41;;;;;;;4.95;4.65;;;23.60;98.70;;;;;;6309376;28;20299;-69
2022/08/12 16:41:07;;;;;;;5.03;4.68;;;23.50;98.80;;;;;;6309661;28;20306;-71
2022/08/12 16:44:13;;;;;;;6.53;5.40;;;23.50;98.80;;;;;;6309029;28;20298;-68
2022/08/12 16:47:23;;;;;;;4.05;3.85;;;23.50;98.80;;;;;;6308904;28;20290;-69
2022/08/12 16:50:31;;;;;;;9.23;3.80;;;23.50;98.50;;;;;;6309437;28;20274;-69
2022/08/12 16:53:39;;;;;;;4.25;3.95;;;23.40;98.40;;;;;;6309330;28;20294;-68
2022/08/12 16:56:53;;;;;;;3.92;3.83;;;23.30;98.80;;;;;;6313907;28;20271;-69
2022/08/12 17:00:04;;;;;;;4.00;3.70;;;23.20;98.70;;;;;;6313722;28;20441;-69
2022/08/12 17:03:16;;;;;;;5.95;3.72;;;23.10;98.80;;;;;;6313595;28;20355;-69
2022/08/12 17:06:34;;;;;;;3.42;3.22;;;23.10;98.80;;;;;;6313845;28;20271;-70
2022/08/12 17:09:45;;;;;;;3.72;3.63;;;23.00;99.10;;;;;;6313816;28;20290;-69
2022/08/12 17:12:50;;;;;;;4.90;3.47;;;23.00;99.00;;;;;;6313483;28;20298;-69
2022/08/12 17:15:58;;;;;;;4.78;3.67;;;22.90;99.10;;;;;;6313914;28;20271;-69
2022/08/12 17:19:10;;;;;;;6.00;3.25;;;22.80;99.20;;;;;;6313325;28;20295;-69
2022/08/12 17:22:16;;;;;;;4.32;4.10;;;22.80;99.20;;;;;;6312903;28;20294;-69
2022/08/12 17:25:26;;;;;;;7.25;3.60;;;22.70;99.50;;;;;;6314101;28;20290;-69
2022/08/12 17:28:34;;;;;;;3.70;3.58;;;22.70;99.60;;;;;;6312997;28;20299;-68
2022/08/12 17:31:44;;;;;;;4.07;3.72;;;22.60;99.40;;;;;;6313729;28;20294;-70
2022/08/12 17:38:40;;;;;;;3.05;2.95;;;22.50;99.70;;;;;;6313242;28;20294;-69
2022/08/12 17:41:45;;;;;;;2.45;2.45;;;22.50;99.70;;;;;;6313089;28;20291;-69
2022/08/12 17:45:01;;;;;;;3.17;3.00;;;22.40;99.70;;;;;;6312851;28;20306;-68
2022/08/12 17:48:25;;;;;;;2.97;2.72;;;22.40;99.70;;;;;;6313093;28;20295;-69
2022/08/12 17:51:39;;;;;;;4.40;2.97;;;22.40;99.60;;;;;;6313183;28;20275;-69
2022/08/12 17:55:07;;;;;;;7.40;2.90;;;22.30;99.70;;;;;;6311865;28;20274;-69
2022/08/12 17:58:32;;;;;;;3.20;3.10;;;22.20;99.80;;;;;;6295608;28;20294;-70
2022/08/12 18:01:42;;;;;;;3.33;3.13;;;22.10;99.80;;;;;;6313219;28;20286;-69
2022/08/12 18:04:51;;;;;;;3.28;3.00;;;22.00;99.60;;;;;;6312435;28;20299;-69
2022/08/12 18:08:14;;;;;;;2.80;2.70;;;21.90;99.60;;;;;;6312378;28;20480;-69
2022/08/12 18:15:05;;;;;;;5.30;2.88;;;21.80;99.90;;;;;;6311835;28;20278;-69
2022/08/12 18:18:16;;;;;;;2.92;2.83;;;21.70;99.80;;;;;;6312415;28;20305;-70
2022/08/12 18:21:25;;;;;;;2.75;2.63;;;21.70;99.80;;;;;;6311961;28;20272;-68
2022/08/12 18:24:50;;;;;;;2.95;2.85;;;21.60;99.90;;;;;;6311777;28;20294;-68
2022/08/12 18:28:09;;;;;;;3.60;3.30;;;21.50;99.90;;;;;;6312167;28;20286;-67
2022/08/12 18:31:32;;;;;;;3.08;2.80;;;21.40;99.90;;;;;;6311921;28;20266;-68
2022/08/12 18:34:59;;;;;;;2.70;2.60;;;21.40;99.90;;;;;;6311823;28;20294;-69